createdAt,value
2018-01-06T00:01:14.671Z,0
2018-01-06T00:02:36.547Z,0
2018-01-06T00:03:58.405Z,0
2018-01-06T00:05:20.001Z,0
2018-01-06T00:06:41.595Z,0
2018-01-06T00:08:03.254Z,0
2018-01-06T00:09:24.847Z,0
2018-01-06T00:10:47.166Z,0
2018-01-06T00:12:09.106Z,0
2018-01-06T00:13:31.385Z,0
2018-01-06T00:14:53.471Z,0
2018-01-06T00:16:15.149Z,0
2018-01-06T00:17:36.227Z,0
2018-01-06T00:18:58.403Z,0
2018-01-06T00:20:20.300Z,0
2018-01-06T00:21:41.642Z,0
2018-01-06T00:23:03.526Z,0
2018-01-06T00:24:25.141Z,0
2018-01-06T00:25:46.846Z,0
2018-01-06T00:27:08.707Z,0
2018-01-06T00:28:30.755Z,0
2018-01-06T00:29:52.089Z,0
2018-01-06T00:31:13.702Z,0
2018-01-06T00:32:35.895Z,0
2018-01-06T00:33:56.976Z,0
2018-01-06T00:35:18.638Z,0
2018-01-06T00:36:40.284Z,0
2018-01-06T00:38:01.630Z,0
2018-01-06T00:39:23.264Z,0
2018-01-06T00:40:45.227Z,0
2018-01-06T00:42:06.886Z,0
2018-01-06T00:43:28.521Z,0
2018-01-06T00:44:50.116Z,0
2018-01-06T00:46:11.609Z,0
2018-01-06T00:47:33.483Z,0
2018-01-06T00:48:55.115Z,0
2018-01-06T00:50:16.768Z,0
2018-01-06T00:51:38.368Z,0
2018-01-06T00:53:00.246Z,0
2018-01-06T00:54:22.384Z,0
2018-01-06T00:55:43.771Z,0
2018-01-06T00:57:05.209Z,0
2018-01-06T00:58:27.089Z,0
2018-01-06T00:59:48.958Z,0
2018-01-06T01:01:10.578Z,0
2018-01-06T01:02:32.726Z,0
2018-01-06T01:03:54.844Z,0
2018-01-06T01:05:16.326Z,0
2018-01-06T01:06:38.197Z,0
2018-01-06T01:07:59.285Z,0
2018-01-06T01:09:21.166Z,0
2018-01-06T01:10:42.764Z,0
2018-01-06T01:12:04.908Z,0
2018-01-06T01:13:26.558Z,0
2018-01-06T01:14:48.732Z,0
2018-01-06T01:16:10.600Z,0
2018-01-06T01:17:32.513Z,0
2018-01-06T01:18:53.859Z,0
2018-01-06T01:20:15.561Z,0
2018-01-06T01:21:37.160Z,0
2018-01-06T01:22:59.210Z,0
2018-01-06T01:24:20.696Z,0
2018-01-06T01:25:42.047Z,0
2018-01-06T01:27:04.257Z,0
2018-01-06T01:28:26.568Z,0
2018-01-06T01:29:48.179Z,0
2018-01-06T01:31:09.883Z,0
2018-01-06T01:32:31.759Z,0
2018-01-06T01:33:53.717Z,0
2018-01-06T01:35:15.327Z,0
2018-01-06T01:36:37.466Z,0
2018-01-06T01:37:58.801Z,0
2018-01-06T01:39:20.388Z,0
2018-01-06T01:40:42.275Z,0
2018-01-06T01:42:04.400Z,0
2018-01-06T01:43:26.508Z,0
2018-01-06T01:44:48.452Z,0
2018-01-06T01:46:10.331Z,0
2018-01-06T01:47:31.940Z,0
2018-01-06T01:48:53.277Z,0
2018-01-06T01:50:15.423Z,0
2018-01-06T01:51:37.687Z,0
2018-01-06T01:52:59.640Z,0
2018-01-06T01:54:21.002Z,0
2018-01-06T01:55:42.598Z,0
2018-01-06T01:57:04.487Z,0
2018-01-06T01:58:26.437Z,0
2018-01-06T01:59:48.517Z,0
2018-01-06T02:01:10.392Z,0
2018-01-06T02:02:32.508Z,0
2018-01-06T02:03:54.608Z,0
2018-01-06T02:05:16.742Z,0
2018-01-06T02:06:38.326Z,0
2018-01-06T02:07:59.647Z,0
2018-01-06T02:09:21.077Z,0
2018-01-06T02:10:42.516Z,0
2018-01-06T02:12:04.106Z,0
2018-01-06T02:13:26.243Z,0
2018-01-06T02:14:48.396Z,0
2018-01-06T02:16:10.050Z,0
2018-01-06T02:17:31.377Z,0
2018-01-06T02:18:53.282Z,0
2018-01-06T02:20:14.897Z,0
2018-01-06T02:21:36.755Z,0
2018-01-06T02:22:58.417Z,0
2018-01-06T02:24:20.296Z,0
2018-01-06T02:25:41.916Z,0
2018-01-06T02:27:04.048Z,0
2018-01-06T02:28:26.357Z,0
2018-01-06T02:29:48.240Z,0
2018-01-06T02:31:10.725Z,0
2018-01-06T02:32:32.856Z,0
2018-01-06T02:33:54.200Z,0
2018-01-06T02:35:16.022Z,0
2018-01-06T02:36:37.640Z,0
2018-01-06T02:37:58.987Z,0
2018-01-06T02:39:20.998Z,0
2018-01-06T02:40:42.860Z,0
2018-01-06T02:42:04.251Z,0
2018-01-06T02:43:25.618Z,0
2018-01-06T02:44:47.484Z,0
2018-01-06T02:46:08.841Z,0
2018-01-06T02:47:30.881Z,0
2018-01-06T02:48:52.980Z,0
2018-01-06T02:50:14.870Z,0
2018-01-06T02:51:36.231Z,0
2018-01-06T02:52:58.343Z,0
2018-01-06T02:54:20.286Z,0
2018-01-06T02:55:42.345Z,0
2018-01-06T02:57:04.198Z,0
2018-01-06T02:58:26.294Z,0
2018-01-06T02:59:47.754Z,0
2018-01-06T03:01:10.019Z,0
2018-01-06T03:02:31.895Z,0
2018-01-06T03:03:54.005Z,0
2018-01-06T03:05:45.170Z,0
2018-01-06T03:07:06.781Z,0
2018-01-06T03:08:28.396Z,0
2018-01-06T03:09:50.347Z,0
2018-01-06T03:11:12.261Z,0
2018-01-06T03:12:34.281Z,0
2018-01-06T03:13:55.924Z,0
2018-01-06T03:15:17.516Z,0
2018-01-06T03:16:39.113Z,0
2018-01-06T03:18:00.987Z,0
2018-01-06T03:19:22.314Z,0
2018-01-06T03:20:44.244Z,0
2018-01-06T03:22:06.140Z,0
2018-01-06T03:23:27.504Z,0
2018-01-06T03:24:49.102Z,0
2018-01-06T03:26:10.698Z,0
2018-01-06T03:27:32.557Z,0
2018-01-06T03:28:54.666Z,0
2018-01-06T03:30:16.120Z,0
2018-01-06T03:31:37.808Z,0
2018-01-06T03:32:59.662Z,0
2018-01-06T03:34:21.689Z,0
2018-01-06T03:35:43.139Z,0
2018-01-06T03:37:04.254Z,0
2018-01-06T03:38:25.856Z,0
2018-01-06T03:39:47.459Z,0
2018-01-06T03:41:09.045Z,0
2018-01-06T03:42:31.286Z,0
2018-01-06T03:43:53.026Z,0
2018-01-06T03:45:14.367Z,0
2018-01-06T03:46:36.477Z,0
2018-01-06T03:47:58.354Z,0
2018-01-06T03:49:20.474Z,0
2018-01-06T03:50:42.064Z,0
2018-01-06T03:52:03.938Z,0
2018-01-06T03:53:25.784Z,0
2018-01-06T03:54:47.280Z,0
2018-01-06T03:56:08.931Z,0
2018-01-06T03:57:30.676Z,0
2018-01-06T03:58:52.094Z,0
2018-01-06T04:00:13.835Z,0
2018-01-06T04:01:35.458Z,0
2018-01-06T04:02:56.783Z,0
2018-01-06T04:04:18.438Z,0
2018-01-06T04:05:40.148Z,0
2018-01-06T04:07:01.498Z,0
2018-01-06T04:08:23.114Z,0
2018-01-06T04:09:44.964Z,0
2018-01-06T04:11:06.843Z,0
2018-01-06T04:12:28.445Z,0
2018-01-06T04:13:50.282Z,0
2018-01-06T04:15:12.004Z,0
2018-01-06T04:16:33.455Z,0
2018-01-06T04:17:55.065Z,0
2018-01-06T04:19:16.978Z,0
2018-01-06T04:20:38.576Z,0
2018-01-06T04:22:00.210Z,0
2018-01-06T04:23:21.569Z,0
2018-01-06T04:24:42.681Z,0
2018-01-06T04:26:04.279Z,0
2018-01-06T04:27:25.967Z,0
2018-01-06T04:28:47.842Z,0
2018-01-06T04:30:08.918Z,0
2018-01-06T04:31:30.829Z,0
2018-01-06T04:32:52.974Z,0
2018-01-06T04:34:14.827Z,0
2018-01-06T04:35:36.774Z,0
2018-01-06T04:36:58.110Z,0
2018-01-06T04:38:19.183Z,0
2018-01-06T04:39:40.781Z,0
2018-01-06T04:41:03.087Z,0
2018-01-06T04:42:24.680Z,0
2018-01-06T04:43:45.769Z,0
2018-01-06T04:45:07.134Z,0
2018-01-06T04:46:28.488Z,0
2018-01-06T04:47:50.623Z,0
2018-01-06T04:49:12.217Z,0
2018-01-06T04:50:33.660Z,0
2018-01-06T04:51:55.535Z,0
2018-01-06T04:53:17.375Z,0
2018-01-06T04:54:38.844Z,0
2018-01-06T04:56:00.038Z,0
2018-01-06T04:57:22.165Z,0
2018-01-06T04:58:44.274Z,0
2018-01-06T05:00:05.630Z,0
2018-01-06T05:01:27.262Z,0
2018-01-06T05:02:48.606Z,0
2018-01-06T05:04:10.729Z,0
2018-01-06T05:05:32.571Z,0
2018-01-06T05:06:53.701Z,0
2018-01-06T05:08:15.921Z,0
2018-01-06T05:09:37.774Z,0
2018-01-06T05:10:59.885Z,0
2018-01-06T05:12:22.144Z,0
2018-01-06T05:13:44.277Z,0
2018-01-06T05:15:06.405Z,0
2018-01-06T05:16:28.095Z,0
2018-01-06T05:17:49.953Z,0
2018-01-06T05:19:11.798Z,0
2018-01-06T05:20:33.704Z,0
2018-01-06T05:21:54.804Z,0
2018-01-06T05:23:16.505Z,0
2018-01-06T05:24:38.107Z,0
2018-01-06T05:26:00.315Z,0
2018-01-06T05:27:21.904Z,0
2018-01-06T05:28:43.118Z,0
2018-01-06T05:30:04.973Z,0
2018-01-06T05:31:26.573Z,0
2018-01-06T05:32:48.332Z,0
2018-01-06T05:34:09.921Z,0
2018-01-06T05:35:31.844Z,0
2018-01-06T05:36:53.511Z,0
2018-01-06T05:38:15.777Z,0
2018-01-06T05:39:37.508Z,0
2018-01-06T05:40:58.854Z,0
2018-01-06T05:42:20.715Z,0
2018-01-06T05:43:42.312Z,0
2018-01-06T05:45:04.209Z,0
2018-01-06T05:46:26.046Z,0
2018-01-06T05:47:47.921Z,0
2018-01-06T05:49:09.614Z,0
2018-01-06T05:50:31.364Z,0
2018-01-06T05:51:53.517Z,0
2018-01-06T05:53:15.636Z,0
2018-01-06T05:54:37.326Z,0
2018-01-06T05:55:59.328Z,0
2018-01-06T05:57:20.924Z,0
2018-01-06T05:58:41.998Z,0
2018-01-06T06:00:03.886Z,0
2018-01-06T06:01:25.524Z,0
2018-01-06T06:02:46.866Z,0
2018-01-06T06:04:08.989Z,0
2018-01-06T06:05:30.311Z,0
2018-01-06T06:06:52.255Z,0
2018-01-06T06:08:13.932Z,0
2018-01-06T06:09:35.945Z,0
2018-01-06T06:10:57.544Z,0
2018-01-06T06:12:18.875Z,0
2018-01-06T06:13:40.732Z,0
2018-01-06T06:15:02.253Z,0
2018-01-06T06:16:24.109Z,0
2018-01-06T06:17:45.700Z,0
2018-01-06T06:19:07.026Z,0
2018-01-06T06:20:28.959Z,0
2018-01-06T06:21:51.067Z,0
2018-01-06T06:23:12.924Z,0
2018-01-06T06:24:34.269Z,0
2018-01-06T06:25:55.873Z,0
2018-01-06T06:27:17.214Z,0
2018-01-06T06:28:38.599Z,0
2018-01-06T06:29:59.933Z,0
2018-01-06T06:31:21.790Z,0
2018-01-06T06:32:43.387Z,0
2018-01-06T06:34:05.241Z,0
2018-01-06T06:35:26.562Z,0
2018-01-06T06:36:48.160Z,0
2018-01-06T06:38:10.035Z,0
2018-01-06T06:39:31.635Z,0
2018-01-06T06:40:53.495Z,0
2018-01-06T06:42:15.106Z,0
2018-01-06T06:43:36.432Z,0
2018-01-06T06:44:58.105Z,0
2018-01-06T06:46:19.547Z,0
2018-01-06T06:47:41.684Z,0
2018-01-06T06:49:03.293Z,0
2018-01-06T06:50:24.704Z,0
2018-01-06T06:51:46.300Z,0
2018-01-06T06:53:08.185Z,0
2018-01-06T06:54:30.055Z,0
2018-01-06T06:55:51.918Z,0
2018-01-06T06:57:13.765Z,0
2018-01-06T06:58:35.538Z,0
2018-01-06T06:59:57.416Z,0
2018-01-06T07:01:19.111Z,0
2018-01-06T07:02:40.890Z,0
2018-01-06T07:04:02.486Z,0
2018-01-06T07:05:24.103Z,0
2018-01-06T07:06:45.706Z,0
2018-01-06T07:08:07.634Z,0
2018-01-06T07:09:29.052Z,0
2018-01-06T07:10:50.906Z,0
2018-01-06T07:12:12.248Z,0
2018-01-06T07:13:33.579Z,0
2018-01-06T07:14:54.935Z,0
2018-01-06T07:16:17.119Z,0
2018-01-06T07:17:38.974Z,0
2018-01-06T07:19:00.860Z,0
2018-01-06T07:20:22.748Z,0
2018-01-06T07:21:44.652Z,0
2018-01-06T07:23:05.984Z,0
2018-01-06T07:24:27.357Z,0
2018-01-06T07:25:49.327Z,0
2018-01-06T07:27:10.935Z,0
2018-01-06T07:28:32.534Z,0
2018-01-06T07:29:54.475Z,0
2018-01-06T07:31:16.108Z,0
2018-01-06T07:32:37.985Z,0
2018-01-06T07:34:00.123Z,0
2018-01-06T07:35:22.004Z,0
2018-01-06T07:36:43.606Z,0
2018-01-06T07:38:04.692Z,0
2018-01-06T07:39:26.302Z,0
2018-01-06T07:40:47.745Z,0
2018-01-06T07:42:09.454Z,0
2018-01-06T07:43:31.454Z,0
2018-01-06T07:44:53.039Z,0
2018-01-06T07:46:15.265Z,0
2018-01-06T07:47:36.610Z,5
2018-01-06T07:48:58.526Z,5
2018-01-06T07:50:20.719Z,5
2018-01-06T07:51:42.096Z,5
2018-01-06T07:53:03.696Z,5
2018-01-06T07:54:25.607Z,5
2018-01-06T07:55:47.216Z,5
2018-01-06T07:57:09.073Z,10
2018-01-06T07:58:30.684Z,10
2018-01-06T07:59:52.547Z,10
2018-01-06T08:01:14.454Z,15
2018-01-06T08:02:36.075Z,15
2018-01-06T08:03:58.117Z,15
2018-01-06T08:05:20.020Z,20
2018-01-06T08:06:42.185Z,20
2018-01-06T08:08:03.856Z,20
2018-01-06T08:09:25.979Z,20
2018-01-06T08:10:47.986Z,20
2018-01-06T08:12:09.307Z,20
2018-01-06T08:13:30.918Z,20
2018-01-06T08:14:52.794Z,20
2018-01-06T08:16:14.088Z,20
2018-01-06T08:17:35.541Z,20
2018-01-06T08:18:57.446Z,25
2018-01-06T08:20:18.895Z,25
2018-01-06T08:21:40.785Z,30
2018-01-06T08:23:02.138Z,30
2018-01-06T08:24:23.995Z,35
2018-01-06T08:25:46.178Z,35
2018-01-06T08:27:07.764Z,30
2018-01-06T08:28:29.638Z,30
2018-01-06T08:29:51.242Z,35
2018-01-06T08:31:13.168Z,35
2018-01-06T08:32:34.752Z,35
2018-01-06T08:33:56.736Z,35
2018-01-06T08:35:18.753Z,35
2018-01-06T08:36:40.670Z,30
2018-01-06T08:38:02.583Z,30
2018-01-06T08:39:23.916Z,35
2018-01-06T08:40:45.536Z,35
2018-01-06T08:42:07.136Z,40
2018-01-06T08:43:28.476Z,45
2018-01-06T08:44:50.455Z,45
2018-01-06T08:46:12.137Z,45
2018-01-06T08:47:34.404Z,45
2018-01-06T08:48:56.532Z,45
2018-01-06T08:50:18.728Z,45
2018-01-06T08:51:40.661Z,50
2018-01-06T08:53:02.705Z,50
2018-01-06T08:54:25.024Z,50
2018-01-06T08:55:46.412Z,50
2018-01-06T08:57:08.010Z,55
2018-01-06T08:58:29.394Z,55
2018-01-06T08:59:51.335Z,55
2018-01-06T09:01:13.214Z,50
2018-01-06T09:02:35.072Z,55
2018-01-06T09:03:56.679Z,45
2018-01-06T09:05:18.724Z,50
2018-01-06T09:06:40.705Z,55
2018-01-06T09:08:02.416Z,55
2018-01-06T09:09:24.684Z,55
2018-01-06T09:10:46.707Z,55
2018-01-06T09:12:08.050Z,55
2018-01-06T09:13:29.656Z,50
2018-01-06T09:14:51.944Z,50
2018-01-06T09:16:13.828Z,45
2018-01-06T09:17:35.685Z,45
2018-01-06T09:18:57.828Z,50
2018-01-06T09:20:19.713Z,50
2018-01-06T09:21:41.831Z,60
2018-01-06T09:23:03.949Z,70
2018-01-06T09:24:25.976Z,70
2018-01-06T09:25:48.248Z,65
2018-01-06T09:27:09.929Z,70
2018-01-06T09:28:31.605Z,75
2018-01-06T09:29:53.191Z,80
2018-01-06T09:31:14.774Z,85
2018-01-06T09:32:36.389Z,90
2018-01-06T09:33:58.004Z,90
2018-01-06T09:35:20.176Z,90
2018-01-06T09:36:42.043Z,80
2018-01-06T09:38:04.202Z,80
2018-01-06T09:39:26.361Z,75
2018-01-06T09:40:47.740Z,70
2018-01-06T09:42:09.734Z,70
2018-01-06T09:43:31.379Z,75
2018-01-06T09:44:53.353Z,85
2018-01-06T09:46:15.367Z,90
2018-01-06T09:47:37.307Z,85
2018-01-06T09:48:59.179Z,95
2018-01-06T09:50:20.796Z,90
2018-01-06T09:51:42.644Z,90
2018-01-06T09:53:04.236Z,80
2018-01-06T09:54:25.588Z,75
2018-01-06T09:55:47.464Z,75
2018-01-06T09:57:08.845Z,75
2018-01-06T09:58:30.225Z,75
2018-01-06T09:59:51.812Z,75
2018-01-06T10:01:13.176Z,75
2018-01-06T10:02:35.425Z,75
2018-01-06T10:03:57.495Z,65
2018-01-06T10:05:19.626Z,65
2018-01-06T10:06:41.246Z,70
2018-01-06T10:08:02.965Z,80
2018-01-06T10:09:25.055Z,90
2018-01-06T10:10:46.964Z,90
2018-01-06T10:12:08.845Z,95
2018-01-06T10:13:30.794Z,95
2018-01-06T10:14:52.139Z,90
2018-01-06T10:16:13.765Z,85
2018-01-06T10:17:35.618Z,85
2018-01-06T10:18:57.255Z,105
2018-01-06T10:20:19.125Z,100
2018-01-06T10:21:40.560Z,105
2018-01-06T10:23:02.226Z,90
2018-01-06T10:24:23.849Z,85
2018-01-06T10:25:46.150Z,75
2018-01-06T10:27:08.039Z,60
2018-01-06T10:28:29.925Z,70
2018-01-06T10:29:51.794Z,85
2018-01-06T10:31:13.901Z,85
2018-01-06T10:32:35.512Z,90
2018-01-06T10:33:57.395Z,90
2018-01-06T10:35:19.032Z,65
2018-01-06T10:36:41.206Z,70
2018-01-06T10:38:03.469Z,70
2018-01-06T10:39:25.415Z,70
2018-01-06T10:40:47.425Z,70
2018-01-06T10:42:09.061Z,80
2018-01-06T10:43:30.961Z,75
2018-01-06T10:44:52.973Z,60
2018-01-06T10:46:15.123Z,70
2018-01-06T10:47:37.256Z,75
2018-01-06T10:48:58.500Z,65
2018-01-06T10:50:20.375Z,60
2018-01-06T10:51:42.030Z,50
2018-01-06T10:53:03.402Z,45
2018-01-06T10:54:25.283Z,45
2018-01-06T10:55:46.928Z,50
2018-01-06T10:57:08.566Z,55
2018-01-06T10:58:30.185Z,60
2018-01-06T10:59:51.998Z,65
2018-01-06T11:01:13.912Z,60
2018-01-06T11:02:35.780Z,60
2018-01-06T11:03:57.533Z,60
2018-01-06T11:05:19.181Z,45
2018-01-06T11:06:40.555Z,40
2018-01-06T11:08:02.728Z,50
2018-01-06T11:09:24.614Z,60
2018-01-06T11:10:46.364Z,70
2018-01-06T11:12:08.269Z,65
2018-01-06T11:13:30.273Z,65
2018-01-06T11:14:52.350Z,65
2018-01-06T11:16:14.472Z,70
2018-01-06T11:17:36.085Z,75
2018-01-06T11:18:58.266Z,65
2018-01-06T11:20:19.907Z,60
2018-01-06T11:21:42.098Z,50
2018-01-06T11:23:03.844Z,60
2018-01-06T11:24:25.472Z,80
2018-01-06T11:25:47.609Z,95
2018-01-06T11:27:09.735Z,100
2018-01-06T11:28:31.956Z,95
2018-01-06T11:29:53.828Z,100
2018-01-06T11:31:15.678Z,85
2018-01-06T11:32:38.195Z,70
2018-01-06T11:34:00.114Z,85
2018-01-06T11:35:21.996Z,70
2018-01-06T11:36:44.140Z,65
2018-01-06T11:38:06.288Z,60
2018-01-06T11:39:28.446Z,55
2018-01-06T11:40:50.336Z,65
2018-01-06T11:42:12.232Z,90
2018-01-06T11:43:33.825Z,95
2018-01-06T11:44:55.448Z,95
2018-01-06T11:46:17.320Z,105
2018-01-06T11:47:39.392Z,100
2018-01-06T11:49:01.486Z,80
2018-01-06T11:50:23.387Z,65
2018-01-06T11:51:45.596Z,70
2018-01-06T11:53:07.788Z,70
2018-01-06T11:54:29.920Z,65
2018-01-06T11:55:52.126Z,50
2018-01-06T11:57:14.001Z,50
2018-01-06T11:58:35.887Z,55
2018-01-06T11:59:57.523Z,40
2018-01-06T12:01:19.515Z,40
2018-01-06T12:02:41.183Z,35
2018-01-06T12:04:03.051Z,40
2018-01-06T12:05:25.216Z,45
2018-01-06T12:06:47.224Z,40
2018-01-06T12:08:08.999Z,45
2018-01-06T12:09:30.684Z,45
2018-01-06T12:10:52.614Z,55
2018-01-06T12:12:14.535Z,45
2018-01-06T12:13:36.730Z,55
2018-01-06T12:14:58.352Z,45
2018-01-06T12:16:19.949Z,50
2018-01-06T12:17:41.864Z,55
2018-01-06T12:19:03.737Z,50
2018-01-06T12:20:25.876Z,30
2018-01-06T12:21:47.221Z,35
2018-01-06T12:23:09.362Z,35
2018-01-06T12:24:31.598Z,20
2018-01-06T12:25:53.743Z,10
2018-01-06T12:27:15.885Z,15
2018-01-06T12:28:37.764Z,15
2018-01-06T12:29:59.665Z,20
2018-01-06T12:31:21.799Z,30
2018-01-06T12:32:43.734Z,45
2018-01-06T12:34:05.865Z,60
2018-01-06T12:35:27.891Z,60
2018-01-06T12:36:49.864Z,60
2018-01-06T12:38:11.470Z,60
2018-01-06T12:39:33.699Z,60
2018-01-06T12:47:40.002Z,100
2018-01-06T12:49:02.006Z,75
2018-01-06T12:50:25.188Z,60
2018-01-06T12:51:46.562Z,70
2018-01-06T12:53:08.803Z,95
2018-01-06T12:54:30.698Z,95
2018-01-06T12:55:52.083Z,95
2018-01-06T12:57:14.058Z,95
2018-01-06T12:58:35.940Z,90
2018-01-06T12:59:57.574Z,80
2018-01-06T13:01:19.533Z,60
2018-01-06T13:02:41.424Z,45
2018-01-06T13:04:03.710Z,50
2018-01-06T13:05:25.878Z,55
2018-01-06T13:06:48.080Z,55
2018-01-06T13:08:10.207Z,55
2018-01-06T13:09:31.621Z,65
2018-01-06T13:10:53.519Z,90
2018-01-06T13:12:15.684Z,100
2018-01-06T13:13:37.679Z,95
2018-01-06T13:14:59.576Z,85
2018-01-06T13:16:21.490Z,90
2018-01-06T13:17:43.660Z,90
2018-01-06T13:19:05.538Z,85
2018-01-06T13:20:27.404Z,95
2018-01-06T13:21:49.397Z,95
2018-01-06T13:23:11.689Z,95
2018-01-06T13:24:33.591Z,95
2018-01-06T13:25:55.708Z,90
2018-01-06T13:27:17.485Z,75
2018-01-06T13:28:39.675Z,70
2018-01-06T13:30:01.875Z,70
2018-01-06T13:31:24.045Z,70
2018-01-06T13:32:45.658Z,50
2018-01-06T13:34:07.836Z,40
2018-01-06T13:35:29.737Z,40
2018-01-06T13:36:51.884Z,50
2018-01-06T13:38:14.041Z,55
2018-01-06T13:39:36.151Z,55
2018-01-06T13:40:58.360Z,60
2018-01-06T13:42:20.726Z,65
2018-01-06T13:43:42.876Z,75
2018-01-06T13:45:05.085Z,75
2018-01-06T13:46:27.018Z,75
2018-01-06T13:47:49.168Z,80
2018-01-06T13:49:11.059Z,80
2018-01-06T13:50:33.290Z,80
2018-01-06T13:51:55.455Z,75
2018-01-06T13:53:17.571Z,65
2018-01-06T13:54:39.747Z,65
2018-01-06T13:56:01.925Z,60
2018-01-06T13:57:24.190Z,55
2018-01-06T13:58:46.348Z,55
2018-01-06T14:00:08.621Z,55
2018-01-06T14:01:30.761Z,55
2018-01-06T14:02:52.932Z,55
2018-01-06T14:04:14.830Z,60
2018-01-06T14:05:37.053Z,60
2018-01-06T14:06:58.939Z,65
2018-01-06T14:08:21.154Z,65
2018-01-06T14:09:43.284Z,65
2018-01-06T14:11:05.171Z,60
2018-01-06T14:12:27.484Z,55
2018-01-06T14:13:49.823Z,55
2018-01-06T14:15:11.543Z,50
2018-01-06T14:16:33.488Z,50
2018-01-06T14:17:55.417Z,50
2018-01-06T14:19:18.160Z,50
2018-01-06T14:20:40.094Z,45
2018-01-06T14:22:01.739Z,40
2018-01-06T14:23:23.745Z,35
2018-01-06T14:24:46.095Z,30
2018-01-06T14:26:08.045Z,25
2018-01-06T14:27:29.658Z,20
2018-01-06T14:28:51.569Z,20
2018-01-06T14:30:13.479Z,20
2018-01-06T14:31:35.627Z,20
2018-01-06T14:32:57.839Z,20
2018-01-06T14:34:19.634Z,20
2018-01-06T14:35:41.510Z,20
2018-01-06T14:37:03.890Z,20
2018-01-06T14:38:25.890Z,15
2018-01-06T14:39:47.552Z,15
2018-01-06T14:41:09.924Z,15
2018-01-06T14:42:31.806Z,15
2018-01-06T14:43:53.834Z,15
2018-01-06T14:45:15.520Z,15
2018-01-06T14:46:37.525Z,15
2018-01-06T14:47:59.454Z,15
2018-01-06T14:49:21.390Z,15
2018-01-06T14:50:43.449Z,15
2018-01-06T14:52:05.656Z,10
2018-01-06T14:53:27.783Z,10
2018-01-06T14:54:49.935Z,10
2018-01-06T14:56:12.270Z,10
2018-01-06T14:57:34.206Z,10
2018-01-06T14:58:56.207Z,10
2018-01-06T15:00:18.102Z,10
2018-01-06T15:01:39.779Z,10
2018-01-06T15:03:01.991Z,10
2018-01-06T15:04:24.175Z,5
2018-01-06T15:05:45.819Z,5
2018-01-06T15:07:08.006Z,5
2018-01-06T15:08:30.267Z,5
2018-01-06T15:09:52.384Z,5
2018-01-06T15:11:14.344Z,5
2018-01-06T15:12:35.779Z,5
2018-01-06T15:13:57.938Z,5
2018-01-06T15:15:20.276Z,5
2018-01-06T15:16:42.165Z,5
2018-01-06T15:18:04.036Z,5
2018-01-06T15:19:25.887Z,5
2018-01-06T15:20:47.785Z,0
2018-01-06T15:22:09.713Z,0
2018-01-06T15:23:31.378Z,0
2018-01-06T15:24:53.586Z,0
2018-01-06T15:26:15.705Z,0
2018-01-06T15:27:37.849Z,0
2018-01-06T15:29:00.046Z,0
2018-01-06T15:30:21.663Z,0
2018-01-06T15:31:43.820Z,0
2018-01-06T15:33:05.986Z,0
2018-01-06T15:34:28.146Z,0
2018-01-06T15:35:50.431Z,0
2018-01-06T15:37:12.331Z,0
2018-01-06T15:38:34.286Z,0
2018-01-06T15:39:56.721Z,0
2018-01-06T15:41:18.612Z,0
2018-01-06T15:42:40.782Z,0
2018-01-06T15:44:02.940Z,0
2018-01-06T15:45:24.845Z,0
2018-01-06T15:46:46.875Z,0
2018-01-06T15:48:09.032Z,0
2018-01-06T15:49:30.382Z,0
2018-01-06T15:50:52.289Z,0
2018-01-06T15:52:16.097Z,0
2018-01-06T15:53:38.054Z,0
2018-01-06T15:55:00.342Z,0
2018-01-06T15:56:22.610Z,0
2018-01-06T15:57:44.753Z,0
2018-01-06T15:59:06.916Z,0
2018-01-06T16:00:29.097Z,0
2018-01-06T16:01:51.455Z,0
2018-01-06T16:03:13.582Z,0
2018-01-06T16:04:35.776Z,0
2018-01-06T16:05:57.688Z,0
2018-01-06T16:07:19.818Z,0
2018-01-06T16:08:42.059Z,0
2018-01-06T16:10:04.335Z,0
2018-01-06T16:11:26.011Z,0
2018-01-06T16:12:47.651Z,0
2018-01-06T16:14:09.606Z,0
2018-01-06T16:15:30.968Z,0
2018-01-06T16:16:52.919Z,0
2018-01-06T16:18:14.574Z,0
2018-01-06T16:19:36.879Z,0
2018-01-06T16:20:58.797Z,0
2018-01-06T16:22:20.682Z,0
2018-01-06T16:23:42.805Z,0
2018-01-06T16:25:04.714Z,0
2018-01-06T16:26:26.735Z,0
2018-01-06T16:27:48.878Z,0
2018-01-06T16:29:11.038Z,0
2018-01-06T16:30:33.292Z,0
2018-01-06T16:31:55.571Z,0
2018-01-06T16:33:17.446Z,0
2018-01-06T16:34:39.624Z,0
2018-01-06T16:36:01.526Z,0
2018-01-06T16:37:23.655Z,0
2018-01-06T16:38:45.948Z,0
2018-01-06T16:40:08.297Z,0
2018-01-06T16:41:29.808Z,0
2018-01-06T16:42:51.943Z,0
2018-01-06T16:44:13.319Z,0
2018-01-06T16:45:35.442Z,0
2018-01-06T16:46:57.328Z,0
2018-01-06T16:48:19.026Z,0
2018-01-06T16:49:41.168Z,0
2018-01-06T16:51:03.362Z,0
2018-01-06T16:52:25.245Z,0
2018-01-06T16:53:47.255Z,0
2018-01-06T16:55:09.186Z,0
2018-01-06T16:56:31.497Z,0
2018-01-06T16:57:53.223Z,0
2018-01-06T16:59:15.100Z,0
2018-01-06T17:00:37.114Z,0
2018-01-06T17:01:58.978Z,0
2018-01-06T17:03:20.813Z,0
2018-01-06T17:04:42.707Z,0
2018-01-06T17:06:04.614Z,0
2018-01-06T17:07:26.854Z,0
2018-01-06T17:08:49.026Z,0
2018-01-06T17:10:11.164Z,0
2018-01-06T17:11:32.557Z,0
2018-01-06T17:12:54.789Z,0
2018-01-06T17:14:16.474Z,0
2018-01-06T17:15:38.397Z,0
2018-01-06T17:17:00.548Z,0
2018-01-06T17:18:22.786Z,0
2018-01-06T17:19:44.685Z,0
2018-01-06T17:21:06.298Z,0
2018-01-06T17:22:28.204Z,0
2018-01-06T17:23:50.412Z,0
2018-01-06T17:25:12.591Z,0
2018-01-06T17:26:34.774Z,0
2018-01-06T17:27:56.933Z,0
2018-01-06T17:29:19.154Z,0
2018-01-06T17:30:41.051Z,0
2018-01-06T17:32:03.073Z,0
2018-01-06T17:33:24.977Z,0
2018-01-06T17:34:47.116Z,0
2018-01-06T17:36:09.384Z,0
2018-01-06T17:37:31.745Z,0
2018-01-06T17:38:53.959Z,0
2018-01-06T17:40:16.108Z,0
2018-01-06T17:41:38.258Z,0
2018-01-06T17:43:00.419Z,0
2018-01-06T17:44:22.136Z,0
2018-01-06T17:45:44.274Z,0
2018-01-06T17:47:06.215Z,0
2018-01-06T17:48:27.833Z,0
2018-01-06T17:49:49.776Z,0
2018-01-06T17:51:11.206Z,0
2018-01-06T17:52:33.358Z,0
2018-01-06T17:53:55.537Z,0
2018-01-06T17:55:17.442Z,0
2018-01-06T17:56:39.664Z,0
2018-01-06T17:58:01.543Z,0
2018-01-06T17:59:23.673Z,0
2018-01-06T18:00:45.538Z,0
2018-01-06T18:02:07.738Z,0
2018-01-06T18:03:29.525Z,0
2018-01-06T18:04:51.777Z,0
2018-01-06T18:06:13.789Z,0
2018-01-06T18:07:35.737Z,0
2018-01-06T18:08:57.646Z,0
2018-01-06T18:10:20.022Z,0
2018-01-06T18:11:41.734Z,0
2018-01-06T18:13:03.993Z,0
2018-01-06T18:14:26.004Z,0
2018-01-06T18:15:47.914Z,0
2018-01-06T18:17:10.101Z,0
2018-01-06T18:18:32.261Z,0
2018-01-06T18:19:54.159Z,0
2018-01-06T18:21:16.082Z,0
2018-01-06T18:22:37.955Z,0
2018-01-06T18:24:00.127Z,0
2018-01-06T18:25:22.258Z,0
2018-01-06T18:26:44.040Z,0
2018-01-06T18:28:06.077Z,0
2018-01-06T18:29:28.345Z,0
2018-01-06T18:30:50.289Z,0
2018-01-06T18:32:12.242Z,0
2018-01-06T18:33:34.452Z,0
2018-01-06T18:34:56.091Z,0
2018-01-06T18:36:17.734Z,0
2018-01-06T18:37:39.736Z,0
2018-01-06T18:39:01.683Z,0
2018-01-06T18:40:23.620Z,0
2018-01-06T18:41:45.586Z,0
2018-01-06T18:43:07.629Z,0
2018-01-06T18:44:29.261Z,0
2018-01-06T18:45:51.194Z,0
2018-01-06T18:47:12.862Z,0
2018-01-06T18:48:35.224Z,0
2018-01-06T18:49:56.865Z,0
2018-01-06T18:51:19.057Z,0
2018-01-06T18:52:41.006Z,0
2018-01-06T18:54:03.265Z,0
2018-01-06T18:55:25.451Z,0
2018-01-06T18:56:47.374Z,0
2018-01-06T18:58:09.542Z,0
2018-01-06T18:59:31.675Z,0
2018-01-06T19:00:53.617Z,0
2018-01-06T19:02:15.524Z,0
2018-01-06T19:03:37.523Z,0
2018-01-06T19:04:59.408Z,0
2018-01-06T19:06:21.317Z,0
2018-01-06T19:07:43.612Z,0
2018-01-06T19:09:05.529Z,0
2018-01-06T19:10:27.973Z,0
2018-01-06T19:11:49.877Z,0
2018-01-06T19:13:12.123Z,0
2018-01-06T19:14:34.142Z,0
2018-01-06T19:15:56.445Z,0
2018-01-06T19:17:18.599Z,0
2018-01-06T19:18:40.517Z,0
2018-01-06T19:20:02.565Z,0
2018-01-06T19:21:24.882Z,0
2018-01-06T19:22:46.523Z,0
2018-01-06T19:24:08.696Z,0
2018-01-06T19:25:30.473Z,0
2018-01-06T19:26:52.675Z,0
2018-01-06T19:28:14.851Z,0
2018-01-06T19:29:37.003Z,0
2018-01-06T19:30:59.044Z,0
2018-01-06T19:32:21.229Z,0
2018-01-06T19:33:43.404Z,0
2018-01-06T19:35:05.712Z,0
2018-01-06T19:36:27.433Z,0
2018-01-06T19:37:48.808Z,0
2018-01-06T19:39:11.086Z,0
2018-01-06T19:40:33.001Z,0
2018-01-06T19:41:54.902Z,0
2018-01-06T19:43:17.063Z,0
2018-01-06T19:44:39.021Z,0
2018-01-06T19:46:00.955Z,0
2018-01-06T19:47:23.133Z,0
2018-01-06T19:48:45.290Z,0
2018-01-06T19:50:07.317Z,0
2018-01-06T19:51:28.985Z,0
2018-01-06T19:52:51.302Z,0
2018-01-06T19:54:13.592Z,0
2018-01-06T19:55:35.588Z,0
2018-01-06T19:56:57.523Z,0
2018-01-06T19:58:19.687Z,0
2018-01-06T19:59:41.975Z,0
2018-01-06T20:01:04.269Z,0
2018-01-06T20:02:26.441Z,0